Laurence M. Gould — WCX7445 — position and weather

sailwx.info

Track history (hours):
 
Tides and Currents Weather Stations Pressure Air Temp Water Temp Dewpoint Dewpoint Depression Visibility Wind Speed Wind Dir Waves Ship Positions

Oceanographic research ship Laurence M. Gould (USA)

Detailed information on ship capabilities available from University of Delaware's Ocean Information Center.

Owner: Offshore Service Vessels LLC, GALLIANO, LA. More information available from US FCC via Universal Licensing System and Coast Guard Vessel Documentation Center.

Last reported at 2014-Oct-24 12:00 UTC. Time now 2014-Oct-24 13:29 UTC.
Position S 53°00' W 070°48'.

Type: Other ship. MMSI: 368138000.

Wind from 060 at 9 knots

Barometer 1001.2 mb
Air temperature 12.7 ° C
Water temperature 6.5 ° C

Date/timePositionNaut miles runAvg speedWind from/ knotsBaromVisibWave heightAir tempDewpointWater temp
2014-Oct-24 12:00S 53°00' W 070°48'0 0.0 060 / 91001.2 12.7 6.5
2014-Oct-24 11:00S 53°00' W 070°48'0 0.0 060 / 91001.2 11.6 6.5
2014-Oct-24 10:00S 53°00' W 070°48'0 0.0 360 / 141000.3 10.2 6.5
2014-Oct-24 09:00S 53°00' W 070°48'0 0.0 070 / 81000.7 9.7 6.5
2014-Oct-24 07:00S 53°00' W 070°48'0 0.0 340 / 261000.0 9.5 6.5
2014-Oct-24 06:00S 53°00' W 070°48'0 0.0 060 / 91001.2 9.7 6.5
2014-Oct-24 05:00S 53°00' W 070°48'0 0.0 330 / 161000.8 9.3 6.5
2014-Oct-24 03:00S 53°00' W 070°48'0 0.0 080 / 36998.3 8.4 6.5
2014-Oct-24 02:00S 53°00' W 070°48'0 0.0 350 / 321000.4 8.3 6.5
2014-Oct-24 00:00S 53°00' W 070°48'0 0.0 090 / 51005.2 8.6 6.5
2014-Oct-23 23:00S 53°00' W 070°48'0 0.0 010 / 241005.4 8.9 6.5
2014-Oct-23 22:00S 53°00' W 070°48'0 0.0 080 / 221005.6 9.6 6.5
2014-Oct-23 21:00S 53°00' W 070°48'0 0.0 060 / 231005.6 9.8 6.5
2014-Oct-23 19:00S 53°00' W 070°48'0 0.0 070 / 291005.5 9.4 6.5
2014-Oct-23 17:00S 53°00' W 070°48'0 0.0 310 / 211006.2 9.1 6.5
2014-Oct-23 16:00S 53°00' W 070°48'0 0.0 010 / 181006.9 9.5 6.5
2014-Oct-23 15:00S 53°00' W 070°48'0 0.0 070 / 181007.2 8.7 6.5
2014-Oct-23 13:00S 53°00' W 070°48'0 0.0 010 / 161006.7 8.0 6.5
2014-Oct-23 11:00S 53°00' W 070°48'0 0.0 350 / 111006.1 7.4 6.5
2014-Oct-23 09:00S 53°00' W 070°48'0 0.0 050 / 131003.2 6.1 6.5
2014-Oct-23 07:00S 53°00' W 070°48'0 0.0 320 / 21999.9 7.0 6.5
2014-Oct-23 06:00S 53°00' W 070°48'0 0.0 060 / 32997.4 7.0 6.5
2014-Oct-23 05:00S 53°00' W 070°48'0 0.0 330 / 30997.2 7.3 6.5
2014-Oct-23 03:00S 53°00' W 070°48'0 0.0 080 / 8999.0 7.6 6.5
2014-Oct-23 01:00S 53°00' W 070°48'0 0.0 140 / 151000.3 7.6 6.5
2014-Oct-22 23:00S 53°00' W 070°48'0 0.0 030 / 91001.2 8.2 6.5
2014-Oct-22 21:00S 53°00' W 070°48'0 0.0 090 / 141001.5 10.4 6.5
2014-Oct-22 20:00S 53°00' W 070°48'0 0.0 350 / 141001.6 10.7 6.5
2014-Oct-22 19:00S 53°00' W 070°48'0 0.0 100 / 191001.5 10.5 6.5
2014-Oct-22 17:00S 53°00' W 070°48'0 0.0 330 / 181001.5 10.5 6.5
2014-Oct-22 16:00S 53°00' W 070°48'0 0.0 350 / 211001.5 10.1 6.5
2014-Oct-22 15:00S 53°00' W 070°48'0 0.0 040 / 161001.8 8.8 6.5
2014-Oct-22 14:00S 53°00' W 070°48'0 0.0 360 / 191001.5 8.1 6.5
2014-Oct-22 13:00S 53°00' W 070°48'0 0.0 050 / 151001.5 7.7 6.5
2014-Oct-22 06:00S 53°00' W 070°48'44 1.8 030 / 6998.5 5.5 6.5
2014-Oct-21 06:00S 52°30' W 069°54'309 8.4 260 / 21993.6 7.9 6.5
2014-Oct-19 17:00S 56°30' W 064°18'45110.7 020 / 141008.7 4.5 4.2
2014-Oct-17 23:00S 63°54' W 061°42'1212.3 160 / 10987.1 -1.3 0.1
2014-Oct-17 22:00S 64°06' W 061°48'4310.8 210 / 25986.4 -1.7 0.2
2014-Oct-17 18:00S 64°36' W 063°00'19 6.3 230 / 21986.1 -3.3 0.2
2014-Oct-17 15:00S 64°42' W 063°42'5 5.1 300 / 13986.9 -4.1 0.5
2014-Oct-17 14:00S 64°42' W 063°54'6 6.0 320 / 6987.2 -3.1 0.4
2014-Oct-17 13:00S 64°36' W 063°54'0 0.0 200 / 4987.0 -2.5 7.4
2014-Oct-17 11:00S 64°36' W 063°54'0 0.0 130 / 5987.0 -5.1 7.4
2014-Oct-17 09:00S 64°36' W 063°54'0 0.0 150 / 7986.1 -4.0 7.4
2014-Oct-17 08:00S 64°36' W 063°54'0 0.0 350 / 16984.9 -4.9 7.4
2014-Oct-17 07:00S 64°36' W 063°54'0 0.0 140 / 5983.9 -0.9 7.4
2014-Oct-17 06:00S 64°36' W 063°54'0 0.0 320 / 6983.7 -2.1 7.4
2014-Oct-17 05:00S 64°36' W 063°54'0 0.0 210 / 16983.0 -1.7 7.4
2014-Oct-17 04:00S 64°36' W 063°54'0 0.0 260 / 17983.1 -2.0 7.4
2014-Oct-17 03:00S 64°36' W 063°54'0 0.0 360 / 2983.5 -1.3 7.4
2014-Oct-17 02:00S 64°36' W 063°54'0 0.0 030 / 5983.6 -1.4 7.4
2014-Oct-16 18:00S 64°36' W 063°54'   050 / 2983.7 1.7 7.4
2014-Oct-14 12:00S 64°36' W 063°54'   120 / 4982.4 7.4
Track history (hours):
 
Tides and Currents Weather Stations Pressure Air Temp Water Temp Dewpoint Dewpoint Depression Visibility Wind Speed Wind Dir Waves Ship Positions

Oceanographic research ship Laurence M. Gould (USA)

Detailed information on ship capabilities available from University of Delaware's Ocean Information Center.

Owner: Offshore Service Vessels LLC, GALLIANO, LA. More information available from US FCC via Universal Licensing System and Coast Guard Vessel Documentation Center.

Last reported at 2014-Oct-24 12:00 UTC. Time now 2014-Oct-24 13:29 UTC.
Position S 53°00' W 070°48'.

Type: Other ship. MMSI: 368138000.

Wind from 060 at 9 knots

Barometer 1001.2 mb
Air temperature 12.7 ° C
Water temperature 6.5 ° C

Date/timePositionNaut miles runAvg speedWind from/ knotsBaromVisibWave heightAir tempDewpointWater temp
2014-Oct-24 12:00S 53°00' W 070°48'0 0.0 060 / 91001.2 12.7 6.5
2014-Oct-24 11:00S 53°00' W 070°48'0 0.0 060 / 91001.2 11.6 6.5
2014-Oct-24 10:00S 53°00' W 070°48'0 0.0 360 / 141000.3 10.2 6.5
2014-Oct-24 09:00S 53°00' W 070°48'0 0.0 070 / 81000.7 9.7 6.5
2014-Oct-24 07:00S 53°00' W 070°48'0 0.0 340 / 261000.0 9.5 6.5
2014-Oct-24 06:00S 53°00' W 070°48'0 0.0 060 / 91001.2 9.7 6.5
2014-Oct-24 05:00S 53°00' W 070°48'0 0.0 330 / 161000.8 9.3 6.5
2014-Oct-24 03:00S 53°00' W 070°48'0 0.0 080 / 36998.3 8.4 6.5
2014-Oct-24 02:00S 53°00' W 070°48'0 0.0 350 / 321000.4 8.3 6.5
2014-Oct-24 00:00S 53°00' W 070°48'0 0.0 090 / 51005.2 8.6 6.5
2014-Oct-23 23:00S 53°00' W 070°48'0 0.0 010 / 241005.4 8.9 6.5
2014-Oct-23 22:00S 53°00' W 070°48'0 0.0 080 / 221005.6 9.6 6.5
2014-Oct-23 21:00S 53°00' W 070°48'0 0.0 060 / 231005.6 9.8 6.5
2014-Oct-23 19:00S 53°00' W 070°48'0 0.0 070 / 291005.5 9.4 6.5
2014-Oct-23 17:00S 53°00' W 070°48'0 0.0 310 / 211006.2 9.1 6.5
2014-Oct-23 16:00S 53°00' W 070°48'0 0.0 010 / 181006.9 9.5 6.5
2014-Oct-23 15:00S 53°00' W 070°48'0 0.0 070 / 181007.2 8.7 6.5
2014-Oct-23 13:00S 53°00' W 070°48'0 0.0 010 / 161006.7 8.0 6.5
2014-Oct-23 11:00S 53°00' W 070°48'0 0.0 350 / 111006.1 7.4 6.5
2014-Oct-23 09:00S 53°00' W 070°48'0 0.0 050 / 131003.2 6.1 6.5
2014-Oct-23 07:00S 53°00' W 070°48'0 0.0 320 / 21999.9 7.0 6.5
2014-Oct-23 06:00S 53°00' W 070°48'0 0.0 060 / 32997.4 7.0 6.5
2014-Oct-23 05:00S 53°00' W 070°48'0 0.0 330 / 30997.2 7.3 6.5
2014-Oct-23 03:00S 53°00' W 070°48'0 0.0 080 / 8999.0 7.6 6.5
2014-Oct-23 01:00S 53°00' W 070°48'0 0.0 140 / 151000.3 7.6 6.5
2014-Oct-22 23:00S 53°00' W 070°48'0 0.0 030 / 91001.2 8.2 6.5
2014-Oct-22 21:00S 53°00' W 070°48'0 0.0 090 / 141001.5 10.4 6.5
2014-Oct-22 20:00S 53°00' W 070°48'0 0.0 350 / 141001.6 10.7 6.5
2014-Oct-22 19:00S 53°00' W 070°48'0 0.0 100 / 191001.5 10.5 6.5
2014-Oct-22 17:00S 53°00' W 070°48'0 0.0 330 / 181001.5 10.5 6.5
2014-Oct-22 16:00S 53°00' W 070°48'0 0.0 350 / 211001.5 10.1 6.5
2014-Oct-22 15:00S 53°00' W 070°48'0 0.0 040 / 161001.8 8.8 6.5
2014-Oct-22 14:00S 53°00' W 070°48'0 0.0 360 / 191001.5 8.1 6.5
2014-Oct-22 13:00S 53°00' W 070°48'0 0.0 050 / 151001.5 7.7 6.5
2014-Oct-22 06:00S 53°00' W 070°48'44 1.8 030 / 6998.5 5.5 6.5
2014-Oct-21 06:00S 52°30' W 069°54'309 8.4 260 / 21993.6 7.9 6.5
2014-Oct-19 17:00S 56°30' W 064°18'45110.7 020 / 141008.7 4.5 4.2
2014-Oct-17 23:00S 63°54' W 061°42'1212.3 160 / 10987.1 -1.3 0.1
2014-Oct-17 22:00S 64°06' W 061°48'4310.8 210 / 25986.4 -1.7 0.2
2014-Oct-17 18:00S 64°36' W 063°00'19 6.3 230 / 21986.1 -3.3 0.2
2014-Oct-17 15:00S 64°42' W 063°42'5 5.1 300 / 13986.9 -4.1 0.5
2014-Oct-17 14:00S 64°42' W 063°54'6 6.0 320 / 6987.2 -3.1 0.4
2014-Oct-17 13:00S 64°36' W 063°54'0 0.0 200 / 4987.0 -2.5 7.4
2014-Oct-17 11:00S 64°36' W 063°54'0 0.0 130 / 5987.0 -5.1 7.4
2014-Oct-17 09:00S 64°36' W 063°54'0 0.0 150 / 7986.1 -4.0 7.4
2014-Oct-17 08:00S 64°36' W 063°54'0 0.0 350 / 16984.9 -4.9 7.4
2014-Oct-17 07:00S 64°36' W 063°54'0 0.0 140 / 5983.9 -0.9 7.4
2014-Oct-17 06:00S 64°36' W 063°54'0 0.0 320 / 6983.7 -2.1 7.4
2014-Oct-17 05:00S 64°36' W 063°54'0 0.0 210 / 16983.0 -1.7 7.4
2014-Oct-17 04:00S 64°36' W 063°54'0 0.0 260 / 17983.1 -2.0 7.4
2014-Oct-17 03:00S 64°36' W 063°54'0 0.0 360 / 2983.5 -1.3 7.4
2014-Oct-17 02:00S 64°36' W 063°54'0 0.0 030 / 5983.6 -1.4 7.4
2014-Oct-16 18:00S 64°36' W 063°54'   050 / 2983.7 1.7 7.4
2014-Oct-14 12:00S 64°36' W 063°54'   120 / 4982.4 7.4

Dump ship's entire track history